Time;durP1;ratioP1;P1;durP2;ratioP2;P2;SDS_P1;SDS_P2;PMS_P1;PMS_P2;Temp;Humidity;BMP_temperature;BMP_pressure;BME280_temperature;BME280_humidity;BME280_pressure;Samples;Min_cycle;Max_cycle;Signal;HPM_P1;HPM_P2
2021/03/07 00:00:22;;;;;;;30.08;15.05;;;;;;;-0.07;64.16;99659.13;2284058;77;21292;-80
2021/03/07 00:03:25;;;;;;;24.43;12.70;;;;;;;0.01;64.20;99656.11;2281768;77;21084;-81
2021/03/07 00:06:27;;;;;;;26.05;14.18;;;;;;;0.06;64.11;99648.92;2286369;77;21368;-81
2021/03/07 00:09:28;;;;;;;29.52;15.72;;;;;;;0.12;64.01;99649.40;2278310;77;21348;-81
2021/03/07 00:12:30;;;;;;;24.47;15.05;;;;;;;0.16;63.92;99650.86;2280757;77;21367;-81
2021/03/07 00:15:32;;;;;;;24.72;15.15;;;;;;;0.21;63.88;99650.60;2280131;77;21272;-81
2021/03/07 00:18:33;;;;;;;30.65;15.60;;;;;;;0.27;63.77;99643.77;2281732;77;21281;-81
2021/03/07 00:21:35;;;;;;;27.80;14.35;;;;;;;0.32;63.77;99637.91;2181049;81;21737;-81
2021/03/07 00:24:36;;;;;;;44.58;20.55;;;;;;;0.37;63.70;99629.91;2173284;81;21676;-81
2021/03/07 00:27:38;;;;;;;27.80;15.75;;;;;;;0.40;63.62;99629.71;2212747;80;21341;-81
2021/03/07 00:30:39;;;;;;;29.30;15.50;;;;;;;0.44;63.53;99634.57;2277862;77;21281;-81
2021/03/07 00:33:41;;;;;;;25.65;15.25;;;;;;;0.46;63.49;99632.75;2281638;77;21284;-81
2021/03/07 00:36:43;;;;;;;26.57;15.68;;;;;;;0.50;63.46;99622.61;2275484;77;21330;-81
2021/03/07 00:39:44;;;;;;;32.15;16.82;;;;;;;0.53;63.59;99620.30;2278341;77;21318;-81
2021/03/07 00:42:46;;;;;;;26.40;15.38;;;;;;;0.55;63.47;99615.91;2284651;77;21349;-81
2021/03/07 00:45:48;;;;;;;25.08;15.10;;;;;;;0.56;63.62;99608.07;2290906;77;21115;-81
2021/03/07 00:48:49;;;;;;;36.13;17.80;;;;;;;0.58;63.48;99605.86;2289365;77;21284;-81
2021/03/07 00:51:51;;;;;;;33.38;16.62;;;;;;;0.61;63.56;99605.20;2278476;77;21158;-80
2021/03/07 00:54:52;;;;;;;32.55;17.60;;;;;;;0.60;63.57;99599.67;2291411;77;21733;-81
2021/03/07 00:57:54;;;;;;;54.18;25.57;;;;;;;0.63;63.60;99601.23;2295691;77;21337;-80
2021/03/07 01:00:55;;;;;;;35.05;17.05;;;;;;;0.64;63.67;99593.86;2284244;77;21721;-81
2021/03/07 01:03:57;;;;;;;31.15;16.42;;;;;;;0.66;63.70;99589.00;2283882;77;21293;-82
2021/03/07 01:06:58;;;;;;;30.97;17.07;;;;;;;0.68;63.61;99587.14;2284706;77;21312;-81
2021/03/07 01:10:00;;;;;;;24.77;15.03;;;;;;;0.67;63.68;99579.05;2292821;77;21593;-81
2021/03/07 01:13:01;;;;;;;25.30;15.28;;;;;;;0.69;63.72;99590.55;2280323;77;21261;-81
2021/03/07 01:16:03;;;;;;;22.02;14.28;;;;;;;0.69;63.63;99588.80;2286608;77;21162;-81
2021/03/07 01:19:05;;;;;;;24.72;14.00;;;;;;;0.70;63.71;99593.02;2285080;77;21143;-81
2021/03/07 01:22:06;;;;;;;21.65;13.93;;;;;;;0.72;63.77;99589.06;2284911;77;21994;-82
2021/03/07 01:25:08;;;;;;;22.22;14.07;;;;;;;0.71;63.79;99585.66;2285387;77;21172;-81
2021/03/07 01:28:10;;;;;;;25.68;15.45;;;;;;;0.72;63.83;99579.57;2287450;77;21246;-81
2021/03/07 01:31:11;;;;;;;24.55;14.73;;;;;;;0.74;63.98;99580.79;2282839;77;21151;-80
2021/03/07 01:34:13;;;;;;;24.43;16.37;;;;;;;0.75;64.02;99572.95;2278280;77;21154;-81
2021/03/07 01:37:14;;;;;;;22.85;12.45;;;;;;;0.79;64.11;99572.28;2292373;77;21734;-81
2021/03/07 01:40:16;;;;;;;25.60;15.83;;;;;;;0.78;64.12;99566.77;2281992;77;21305;-82
2021/03/07 01:43:18;;;;;;;28.47;16.60;;;;;;;0.81;64.16;99553.67;2281080;77;21156;-81
2021/03/07 01:46:19;;;;;;;26.33;14.83;;;;;;;0.80;64.21;99545.58;2288992;77;21728;-81
2021/03/07 01:49:21;;;;;;;24.43;14.28;;;;;;;0.82;64.28;99542.00;2274458;77;21186;-81
2021/03/07 01:52:22;;;;;;;21.90;14.28;;;;;;;0.81;64.27;99531.76;2278448;77;21339;-82
2021/03/07 01:55:24;;;;;;;25.17;14.43;;;;;;;0.82;64.42;99524.38;2280462;77;21773;-80
2021/03/07 01:58:25;;;;;;;27.20;16.82;;;;;;;0.84;64.44;99519.98;2286495;77;21714;-82
2021/03/07 02:01:27;;;;;;;74.67;29.90;;;;;;;0.85;64.68;99506.16;2281500;77;21257;-81
2021/03/07 02:04:29;;;;;;;61.65;28.80;;;;;;;0.83;64.66;99492.55;2279143;77;21343;-80
2021/03/07 02:07:30;;;;;;;62.20;41.25;;;;;;;0.82;64.70;99487.86;2274263;77;21186;-81
2021/03/07 02:10:32;;;;;;;52.93;26.07;;;;;;;0.83;64.86;99489.97;2285425;77;21331;-81
2021/03/07 02:13:34;;;;;;;38.08;18.17;;;;;;;0.86;64.85;99487.18;2280946;77;21158;-81
2021/03/07 02:16:35;;;;;;;30.15;15.25;;;;;;;0.91;64.87;99490.73;2278595;77;21111;-82
2021/03/07 02:19:37;;;;;;;26.27;13.72;;;;;;;0.92;64.89;99487.27;2286672;77;21351;-81
2021/03/07 02:22:38;;;;;;;21.93;11.30;;;;;;;0.93;64.93;99481.17;2286140;77;21309;-81
2021/03/07 02:25:40;;;;;;;24.47;13.00;;;;;;;0.94;64.96;99481.53;2284785;77;21178;-82
2021/03/07 02:28:42;;;;;;;26.52;12.88;;;;;;;0.92;64.95;99475.19;2285477;77;21154;-81
2021/03/07 02:31:43;;;;;;;34.08;17.82;;;;;;;0.91;65.04;99479.13;2287213;77;21594;-82
2021/03/07 02:34:45;;;;;;;41.75;18.73;;;;;;;0.92;65.00;99471.79;2288838;77;21146;-81
2021/03/07 02:37:46;;;;;;;24.32;14.15;;;;;;;0.93;65.14;99476.02;2284935;77;21297;-81
2021/03/07 02:40:48;;;;;;;25.23;13.15;;;;;;;0.93;65.03;99463.12;2285397;77;21800;-80
2021/03/07 02:43:49;;;;;;;21.12;12.60;;;;;;;0.91;65.05;99458.04;2282115;77;21726;-82
2021/03/07 02:46:51;;;;;;;23.55;13.90;;;;;;;0.93;65.12;99459.25;2285396;77;21135;-81
2021/03/07 02:49:53;;;;;;;28.17;14.98;;;;;;;0.95;65.03;99454.35;2282668;77;21325;-82
2021/03/07 02:52:54;;;;;;;30.50;14.73;;;;;;;0.97;65.11;99452.48;2278543;77;21935;-82
2021/03/07 02:55:56;;;;;;;20.57;12.63;;;;;;;0.98;65.11;99441.25;2288185;77;21675;-82
2021/03/07 02:58:59;;;;;;;23.30;12.78;;;;;;;1.00;65.19;99439.84;2288541;77;21283;-82
2021/03/07 03:02:01;;;;;;;18.90;12.18;;;;;;;0.97;65.16;99435.73;2290256;77;21595;-81
2021/03/07 03:05:02;;;;;;;34.55;17.62;;;;;;;0.98;65.26;99433.97;2285308;77;21306;-81
2021/03/07 03:08:04;;;;;;;85.10;31.25;;;;;;;1.00;65.20;99434.22;2282807;77;21318;-81
2021/03/07 03:11:05;;;;;;;35.65;15.88;;;;;;;0.99;65.32;99434.33;2285361;77;21289;-82
2021/03/07 03:14:07;;;;;;;28.98;13.03;;;;;;;0.97;65.45;99435.73;2283076;77;21304;-82
2021/03/07 03:17:08;;;;;;;22.48;11.35;;;;;;;1.00;65.32;99430.82;2280895;77;21313;-81
2021/03/07 03:20:10;;;;;;;25.05;12.73;;;;;;;1.01;65.35;99433.33;2278571;77;21328;-81
2021/03/07 03:23:12;;;;;;;28.62;13.30;;;;;;;1.02;65.40;99427.23;2280770;77;22318;-82
2021/03/07 03:26:13;;;;;;;20.10;11.28;;;;;;;1.06;65.47;99422.69;2278525;77;21161;-82
2021/03/07 03:29:15;;;;;;;22.35;10.95;;;;;;;1.06;65.35;99418.35;2278393;77;21298;-82
2021/03/07 03:32:16;;;;;;;21.05;10.93;;;;;;;1.04;65.49;99408.61;2278349;77;21322;-81
2021/03/07 03:35:18;;;;;;;21.23;11.43;;;;;;;1.05;65.44;99412.02;2287811;77;21344;-82
2021/03/07 03:38:20;;;;;;;22.10;11.68;;;;;;;1.08;65.43;99406.17;2278315;77;21720;-82
2021/03/07 03:41:21;;;;;;;21.97;11.63;;;;;;;1.07;65.52;99407.11;2278495;77;21281;-81
2021/03/07 03:44:23;;;;;;;27.37;10.82;;;;;;;1.07;65.67;99407.11;2285564;77;21154;-82
2021/03/07 03:47:25;;;;;;;19.30;10.95;;;;;;;1.07;65.65;99395.50;2287838;77;21320;-82
2021/03/07 03:50:26;;;;;;;15.78;10.03;;;;;;;1.06;65.67;99391.73;2280768;77;21365;-82
2021/03/07 03:53:28;;;;;;;18.73;8.25;;;;;;;1.09;65.71;99394.09;2290953;77;21753;-82
2021/03/07 03:56:30;;;;;;;16.42;9.95;;;;;;;1.11;65.76;99384.06;2288805;77;21361;-82
2021/03/07 03:59:31;;;;;;;15.78;8.93;;;;;;;1.10;65.72;99377.25;2288310;77;21309;-81
2021/03/07 04:02:33;;;;;;;14.07;8.73;;;;;;;1.11;65.72;99376.80;2281970;77;21289;-82
2021/03/07 04:05:34;;;;;;;14.55;9.70;;;;;;;1.13;65.78;99378.80;2281910;77;21163;-82
2021/03/07 04:08:36;;;;;;;14.73;9.38;;;;;;;1.15;65.81;99376.93;2283067;77;21277;-81
2021/03/07 04:11:37;;;;;;;23.00;11.10;;;;;;;1.14;65.79;99373.99;2278359;77;21265;-82
2021/03/07 04:14:39;;;;;;;18.92;9.88;;;;;;;1.17;65.87;99370.38;2286737;77;21302;-82
2021/03/07 04:17:40;;;;;;;19.70;8.98;;;;;;;1.17;65.88;99358.30;2283677;77;21638;-81
2021/03/07 04:20:42;;;;;;;13.90;7.30;;;;;;;1.19;65.79;99362.91;2282289;77;21325;-82
2021/03/07 04:23:43;;;;;;;15.70;9.10;;;;;;;1.19;65.85;99358.19;2283680;77;21273;-81
2021/03/07 04:26:45;;;;;;;13.70;7.85;;;;;;;1.18;65.65;99359.13;2278200;77;21298;-82
2021/03/07 04:29:46;;;;;;;13.60;8.18;;;;;;;1.17;65.75;99358.30;2279718;77;21321;-82
2021/03/07 04:32:48;;;;;;;14.10;8.35;;;;;;;1.17;65.71;99372.48;2278367;77;21305;-82
2021/03/07 04:35:50;;;;;;;13.05;7.83;;;;;;;1.16;65.73;99355.83;2280854;77;21317;-82
2021/03/07 04:38:52;;;;;;;14.87;9.60;;;;;;;1.14;65.66;99363.21;2278297;77;21793;-82
2021/03/07 04:41:53;;;;;;;25.00;12.15;;;;;;;1.14;65.76;99355.94;2280622;77;21161;-81
2021/03/07 04:44:55;;;;;;;15.80;8.73;;;;;;;1.16;65.73;99362.28;2279732;77;21154;-82
2021/03/07 04:47:56;;;;;;;17.27;9.78;;;;;;;1.15;65.66;99362.74;2283074;77;21356;-81
2021/03/07 04:50:58;;;;;;;16.50;9.73;;;;;;;1.16;65.64;99371.30;2279617;77;21155;-82
2021/03/07 04:54:00;;;;;;;15.63;9.70;;;;;;;1.17;65.64;99369.08;2284932;77;21289;-82
2021/03/07 04:57:01;;;;;;;13.70;8.98;;;;;;;1.16;65.49;99364.39;2283578;77;21277;-82
2021/03/07 05:00:03;;;;;;;16.62;8.93;;;;;;;1.17;65.48;99355.72;2282633;77;21301;-82
2021/03/07 05:03:04;;;;;;;19.25;9.55;;;;;;;1.18;65.57;99350.91;2282661;77;21345;-81
2021/03/07 05:06:06;;;;;;;15.55;9.25;;;;;;;1.20;65.48;99352.13;2284663;77;21179;-81
2021/03/07 05:09:08;;;;;;;15.30;9.73;;;;;;;1.19;65.63;99352.59;2290421;77;21301;-81
2021/03/07 05:12:09;;;;;;;19.42;11.73;;;;;;;1.21;65.54;99351.20;2278406;77;21736;-81
2021/03/07 05:15:11;;;;;;;34.40;14.93;;;;;;;1.22;65.59;99351.55;2287728;77;21693;-81
2021/03/07 05:18:12;;;;;;;20.52;10.63;;;;;;;1.21;65.64;99344.75;2282656;77;21329;-81
2021/03/07 05:21:13;;;;;;;14.33;9.15;;;;;;;1.21;65.44;99347.33;2283163;77;21570;-81
2021/03/07 05:24:15;;;;;;;19.30;10.53;;;;;;;1.20;65.48;99342.63;2281649;77;21293;-82
2021/03/07 05:27:17;;;;;;;12.43;8.05;;;;;;;1.21;65.68;99344.28;2283911;77;21309;-82
2021/03/07 05:30:18;;;;;;;18.12;9.43;;;;;;;1.23;65.63;99339.83;2283744;77;21753;-81
2021/03/07 05:33:20;;;;;;;16.80;9.85;;;;;;;1.25;65.58;99337.97;2278377;77;21179;-81
2021/03/07 05:36:21;;;;;;;19.25;9.30;;;;;;;1.28;65.48;99332.61;2285086;77;21124;-81
2021/03/07 05:39:23;;;;;;;15.80;9.00;;;;;;;1.28;65.57;99339.06;2278278;78;21218;-82
2021/03/07 05:42:24;;;;;;;17.77;9.75;;;;;;;1.30;65.44;99338.48;2280475;77;21730;-81
2021/03/07 05:45:26;;;;;;;15.65;9.70;;;;;;;1.32;65.38;99337.09;2290107;77;21309;-81
2021/03/07 05:48:28;;;;;;;20.32;10.60;;;;;;;1.34;65.51;99339.91;2282812;77;21714;-81
2021/03/07 05:51:29;;;;;;;16.77;10.03;;;;;;;1.36;65.49;99330.77;2283872;77;21143;-81
2021/03/07 05:54:34;;;;;;;16.20;9.85;;;;;;;1.36;65.54;99330.30;2290356;77;21368;-81
2021/03/07 05:57:35;;;;;;;14.05;8.33;;;;;;;1.40;65.34;99321.44;2283072;77;21296;-82
2021/03/07 06:00:37;;;;;;;13.78;8.80;;;;;;;1.41;65.36;99323.55;2278047;77;21770;-82
2021/03/07 06:03:39;;;;;;;12.88;8.98;;;;;;;1.42;65.24;99323.44;2278207;77;21369;-82
2021/03/07 06:06:40;;;;;;;13.18;8.88;;;;;;;1.46;65.16;99315.47;2287754;77;21302;-80
2021/03/07 06:09:42;;;;;;;18.95;10.40;;;;;;;1.51;64.98;99319.86;2282225;77;21310;-81
2021/03/07 06:12:46;;;;;;;26.80;11.63;;;;;;;1.55;64.98;99320.81;2279015;77;21305;-81
2021/03/07 06:15:48;;;;;;;13.03;7.95;;;;;;;1.57;64.62;99312.52;2280314;77;21321;-81
2021/03/07 06:18:51;;;;;;;25.17;9.35;;;;;;;1.58;64.76;99315.45;2290568;77;21281;-81
2021/03/07 06:21:52;;;;;;;15.95;8.88;;;;;;;1.60;64.78;99308.42;2279722;77;21373;-82
2021/03/07 06:24:54;;;;;;;10.75;7.67;;;;;;;1.64;64.72;99306.43;2280615;77;21311;-81
2021/03/07 06:27:56;;;;;;;14.15;9.55;;;;;;;1.72;64.55;99309.30;2281980;77;21281;-81
2021/03/07 06:30:57;;;;;;;10.98;7.58;;;;;;;1.77;64.50;99311.09;2285083;77;21307;-83
2021/03/07 06:33:59;;;;;;;13.85;7.10;;;;;;;1.81;64.02;99307.35;2283062;77;21591;-82
2021/03/07 06:37:00;;;;;;;13.08;8.20;;;;;;;1.83;64.12;99306.80;2291072;77;21302;-82
2021/03/07 06:40:02;;;;;;;39.67;20.57;;;;;;;1.88;64.05;99300.00;2280201;77;21638;-81
2021/03/07 06:43:03;;;;;;;18.57;10.72;;;;;;;1.92;64.00;99294.52;2292077;77;21698;-81
2021/03/07 06:46:05;;;;;;;17.07;9.45;;;;;;;1.98;63.89;99297.11;2280444;77;21300;-80
2021/03/07 06:49:06;;;;;;;13.83;8.00;;;;;;;2.00;63.62;99297.81;2285070;77;21332;-79
2021/03/07 06:52:08;;;;;;;23.40;9.88;;;;;;;2.06;63.70;99295.27;2283977;77;21332;-80
2021/03/07 06:55:11;;;;;;;17.52;8.33;;;;;;;2.12;63.68;99289.19;2280592;77;21276;-79
2021/03/07 06:58:13;;;;;;;12.60;8.80;;;;;;;2.17;63.26;99287.55;2288132;77;21286;-80
2021/03/07 07:01:14;;;;;;;12.35;8.05;;;;;;;2.21;63.48;99288.52;2287748;77;21309;-79
2021/03/07 07:04:16;;;;;;;10.00;7.08;;;;;;;2.27;63.23;99278.18;2277144;77;21333;-78
2021/03/07 07:07:17;;;;;;;14.20;8.30;;;;;;;2.31;62.81;99274.45;2287978;77;21208;-79
2021/03/07 07:10:19;;;;;;;8.13;6.97;;;;;;;2.39;63.04;99264.38;2284438;77;21190;-78
2021/03/07 07:13:21;;;;;;;10.55;6.65;;;;;;;2.45;62.75;99269.06;2279931;77;21356;-78
2021/03/07 07:16:23;;;;;;;10.28;6.95;;;;;;;2.50;62.63;99261.80;2280469;77;21301;-78
2021/03/07 07:19:25;;;;;;;11.10;7.92;;;;;;;2.53;62.75;99262.85;2279498;77;21312;-78
2021/03/07 07:22:26;;;;;;;9.98;7.85;;;;;;;2.58;62.44;99257.35;2286832;77;21608;-80
2021/03/07 07:25:27;;;;;;;11.50;7.87;;;;;;;2.61;62.36;99259.70;2319767;75;21269;-80
2021/03/07 07:28:29;;;;;;;12.70;8.08;;;;;;;2.68;62.24;99256.19;2323329;76;21218;-80
2021/03/07 07:31:30;;;;;;;12.75;8.13;;;;;;;2.70;62.06;99249.13;2316994;76;21359;-84
2021/03/07 07:34:32;;;;;;;14.70;9.48;;;;;;;2.76;61.81;99251.26;2325543;76;21382;-82
2021/03/07 07:37:34;;;;;;;44.93;19.02;;;;;;;2.79;62.01;99247.95;2326065;76;21372;-81
2021/03/07 07:40:35;;;;;;;22.65;11.50;;;;;;;2.84;62.00;99241.97;2331882;76;21335;-82
2021/03/07 07:43:37;;;;;;;16.23;9.00;;;;;;;2.88;62.05;99240.44;2326533;76;21325;-81
2021/03/07 07:46:39;;;;;;;14.15;9.65;;;;;;;2.91;61.80;99235.02;2328653;75;21293;-86
2021/03/07 07:49:41;;;;;;;11.53;8.53;;;;;;;2.95;61.08;99237.73;2314845;75;21610;-82
2021/03/07 07:52:42;;;;;;;11.22;8.03;;;;;;;2.94;61.19;99231.73;2325870;75;21277;-81
2021/03/07 07:55:44;;;;;;;10.28;8.20;;;;;;;2.95;61.27;99241.62;2331829;75;22264;-81
2021/03/07 07:58:46;;;;;;;13.30;8.65;;;;;;;2.99;61.55;99228.78;2320856;76;21268;-81
2021/03/07 08:01:47;;;;;;;16.42;10.45;;;;;;;3.05;61.28;99226.55;2331234;75;21143;-82
2021/03/07 08:04:49;;;;;;;10.78;8.58;;;;;;;3.08;60.70;99222.89;2320042;75;21166;-80
2021/03/07 08:07:51;;;;;;;24.20;13.43;;;;;;;3.10;60.56;99221.00;2342794;76;21131;-81
2021/03/07 08:10:52;;;;;;;15.35;9.83;;;;;;;3.12;60.74;99219.97;2314372;76;21158;-81
2021/03/07 08:13:54;;;;;;;13.68;9.13;;;;;;;3.17;60.56;99215.70;2341202;75;21320;-83
2021/03/07 08:16:57;;;;;;;13.55;9.43;;;;;;;3.22;60.52;99207.13;2328786;75;21269;-82
2021/03/07 08:20:02;;;;;;;15.60;9.30;;;;;;;3.31;60.56;99204.28;2332339;75;21220;-82
2021/03/07 08:23:09;;;;;;;12.37;9.30;;;;;;;3.37;60.27;99185.18;2334539;75;21175;-82
2021/03/07 08:26:22;;;;;;;15.45;10.23;;;;;;;3.47;60.13;99190.44;2324253;76;21597;-82
2021/03/07 08:29:26;;;;;;;11.05;9.05;;;;;;;3.54;59.83;99189.48;2326690;75;21158;-82
2021/03/07 08:32:33;;;;;;;17.98;9.68;;;;;;;3.64;59.76;99187.80;2318585;75;21776;-82
2021/03/07 08:35:36;;;;;;;17.10;10.05;;;;;;;3.71;59.55;99174.70;2322087;76;21264;-82
2021/03/07 08:38:41;;;;;;;15.83;10.68;;;;;;;3.82;59.74;99181.12;2334044;75;21257;-82
2021/03/07 08:41:51;;;;;;;15.88;10.05;;;;;;;3.93;58.87;99177.20;2313461;75;21134;-82
2021/03/07 08:45:00;;;;;;;14.80;9.25;;;;;;;4.02;59.06;99174.78;2318245;75;21316;-82
2021/03/07 08:48:06;;;;;;;12.90;10.10;;;;;;;4.14;57.75;99169.42;2324917;75;21304;-85
2021/03/07 08:51:11;;;;;;;13.22;9.10;;;;;;;4.19;57.70;99163.84;2333407;76;21763;-84
2021/03/07 08:54:12;;;;;;;11.20;8.73;;;;;;;4.19;57.73;99174.20;2331404;75;21725;-81
2021/03/07 08:57:14;;;;;;;10.38;8.35;;;;;;;4.16;57.94;99166.70;2325928;76;21346;-82
2021/03/07 09:00:16;;;;;;;13.35;10.08;;;;;;;4.16;57.93;99162.33;2345291;76;21305;-82
2021/03/07 09:03:18;;;;;;;16.15;9.08;;;;;;;4.20;58.05;99162.88;2326518;75;21679;-83
2021/03/07 09:06:20;;;;;;;18.80;9.80;;;;;;;4.31;58.13;99156.83;2332675;76;21279;-81
2021/03/07 09:09:21;;;;;;;14.75;11.50;;;;;;;4.41;57.87;99163.70;2330299;75;21143;-81
2021/03/07 09:12:23;;;;;;;19.02;10.75;;;;;;;4.47;57.52;99155.37;2334736;75;21575;-81
2021/03/07 09:15:25;;;;;;;16.85;10.72;;;;;;;4.52;57.13;99160.19;2325501;75;21142;-81
2021/03/07 09:18:26;;;;;;;15.28;10.32;;;;;;;4.60;56.61;99158.25;2279040;77;21319;-80
2021/03/07 09:21:28;;;;;;;14.10;9.85;;;;;;;4.57;56.25;99139.86;2263881;77;21320;-81
2021/03/07 09:24:30;;;;;;;14.45;10.05;;;;;;;4.59;56.41;99147.05;2279913;77;21270;-81
2021/03/07 09:27:31;;;;;;;19.57;10.80;;;;;;;4.67;56.52;99153.70;2222539;79;21115;-81
2021/03/07 09:30:33;;;;;;;40.15;11.08;;;;;;;4.68;56.25;99142.38;2256331;78;21178;-81
2021/03/07 09:33:35;;;;;;;12.30;8.65;;;;;;;4.69;56.04;99141.42;2248493;78;21328;-81
2021/03/07 09:36:36;;;;;;;13.40;8.73;;;;;;;4.65;55.75;99125.76;2238616;79;21380;-81
2021/03/07 09:39:38;;;;;;;15.68;10.15;;;;;;;4.62;56.34;99124.73;2235733;78;21313;-80
2021/03/07 09:42:40;;;;;;;12.85;8.38;;;;;;;4.61;56.07;99129.58;2240692;79;21680;-79
2021/03/07 09:45:41;;;;;;;18.62;9.98;;;;;;;4.59;55.97;99109.45;2269990;77;21692;-80
2021/03/07 09:48:45;;;;;;;15.03;9.48;;;;;;;4.59;56.12;99125.48;2230895;78;21607;-79
2021/03/07 09:51:47;;;;;;;14.35;8.93;;;;;;;4.60;56.02;99123.23;2271254;77;21191;-81
2021/03/07 09:54:48;;;;;;;20.88;9.70;;;;;;;4.66;56.18;99129.98;2279152;77;21786;-82
2021/03/07 09:57:51;;;;;;;11.15;8.35;;;;;;;4.68;55.74;99122.10;2288335;77;21313;-81
2021/03/07 10:00:53;;;;;;;13.95;10.40;;;;;;;4.71;55.81;99133.02;2259980;78;21195;-82
2021/03/07 10:03:54;;;;;;;11.70;9.33;;;;;;;4.73;55.45;99124.63;2271837;77;21318;-82
2021/03/07 10:06:56;;;;;;;16.85;12.18;;;;;;;4.72;55.25;99128.17;2259499;78;21300;-82
2021/03/07 10:09:58;;;;;;;20.70;9.75;;;;;;;4.69;55.15;99111.59;2257508;77;21154;-82
2021/03/07 10:13:00;;;;;;;13.45;8.18;;;;;;;4.69;55.41;99119.84;2246675;78;21151;-80
2021/03/07 10:16:01;;;;;;;19.80;11.30;;;;;;;4.64;54.95;99123.30;2283118;77;21163;-80
2021/03/07 10:19:03;;;;;;;17.32;10.43;;;;;;;4.65;55.61;99114.09;2236267;79;21310;-79
2021/03/07 10:22:05;;;;;;;16.05;10.35;;;;;;;4.74;56.00;99114.59;2270604;77;21171;-81
2021/03/07 10:25:06;;;;;;;13.25;9.80;;;;;;;4.79;55.45;99109.84;2281216;77;21296;-81
2021/03/07 10:28:08;;;;;;;15.38;9.93;;;;;;;4.78;55.51;99105.61;2265099;77;22808;-82
2021/03/07 10:31:12;;;;;;;15.48;10.05;;;;;;;4.77;55.44;99116.94;2281008;77;21301;-81
2021/03/07 10:34:14;;;;;;;14.65;9.23;;;;;;;4.76;55.26;99115.78;2277320;77;21214;-81
2021/03/07 10:37:15;;;;;;;14.95;9.95;;;;;;;4.75;55.33;99105.03;2272845;77;21289;-82
2021/03/07 10:40:17;;;;;;;25.82;13.55;;;;;;;4.76;55.28;99097.62;2266404;77;21134;-82
2021/03/07 10:43:19;;;;;;;14.58;10.28;;;;;;;4.81;55.22;99087.64;2275004;77;21626;-84
2021/03/07 10:46:28;;;;;;;13.38;9.83;;;;;;;4.83;55.20;99090.92;2275441;77;21777;-82
2021/03/07 10:49:51;;;;;;;14.60;9.25;;;;;;;4.86;55.04;99085.48;2278116;77;21253;-81
2021/03/07 10:52:53;;;;;;;11.22;8.65;;;;;;;4.89;54.89;99076.60;2253706;77;21768;-83
2021/03/07 10:55:55;;;;;;;12.18;8.88;;;;;;;4.91;55.25;99078.09;2269688;77;21289;-82
2021/03/07 10:58:57;;;;;;;11.48;8.15;;;;;;;4.91;55.17;99071.61;2243814;77;21158;-82
2021/03/07 11:01:59;;;;;;;10.70;7.47;;;;;;;4.90;54.85;99080.83;2285314;77;21163;-83
2021/03/07 11:05:00;;;;;;;12.95;8.10;;;;;;;4.82;53.85;99058.97;2278678;77;21151;-83
2021/03/07 11:08:02;;;;;;;12.85;7.83;;;;;;;4.75;53.87;99052.66;2203444;79;21174;-85
2021/03/07 11:11:04;;;;;;;8.93;6.90;;;;;;;4.67;54.32;99066.81;2259913;77;21262;-81
2021/03/07 11:14:05;;;;;;;14.65;7.72;;;;;;;4.64;54.35;99062.34;2259961;77;21288;-82
2021/03/07 11:17:07;;;;;;;8.83;7.05;;;;;;;4.56;54.35;99058.64;2256237;78;21646;-85
2021/03/07 11:20:08;;;;;;;9.48;7.20;;;;;;;4.53;54.23;99060.20;2275527;77;21158;-85
2021/03/07 11:23:10;;;;;;;10.18;7.15;;;;;;;4.50;54.57;99063.08;2264878;77;21603;-85
2021/03/07 11:26:12;;;;;;;9.58;7.25;;;;;;;4.45;54.30;99054.05;2277663;77;21182;-85
2021/03/07 11:29:13;;;;;;;11.45;8.00;;;;;;;4.45;54.43;99052.75;2275768;77;21278;-85
2021/03/07 11:32:15;;;;;;;12.30;7.90;;;;;;;4.44;54.30;99047.22;2262041;77;21142;-85
2021/03/07 11:35:17;;;;;;;11.25;8.35;;;;;;;4.38;54.14;99038.19;2283928;77;21306;-85
2021/03/07 11:38:18;;;;;;;9.78;7.87;;;;;;;4.35;54.40;99022.09;2276711;77;21174;-85
2021/03/07 11:41:20;;;;;;;12.18;8.60;;;;;;;4.33;54.25;99029.18;2281669;77;21658;-85
2021/03/07 11:44:21;;;;;;;12.80;8.65;;;;;;;4.27;54.39;99042.19;2257980;77;21311;-85
2021/03/07 11:47:23;;;;;;;12.88;7.55;;;;;;;4.18;54.12;99030.83;2277444;78;21289;-86
2021/03/07 11:50:25;;;;;;;20.27;9.63;;;;;;;4.16;54.52;99021.55;2257932;77;22652;-85
2021/03/07 11:53:26;;;;;;;15.38;9.50;;;;;;;4.13;54.63;99023.94;2250052;77;21160;-85
2021/03/07 11:56:28;;;;;;;14.18;9.38;;;;;;;4.11;54.33;99016.74;2262423;77;21575;-85
2021/03/07 11:59:30;;;;;;;19.82;9.75;;;;;;;4.14;54.43;99010.50;2241462;77;21130;-85
2021/03/07 12:02:31;;;;;;;13.28;9.83;;;;;;;4.13;54.52;99009.69;2264218;77;21286;-85
2021/03/07 12:05:33;;;;;;;15.83;9.53;;;;;;;4.16;54.60;99008.59;2285280;78;21294;-85
2021/03/07 12:08:35;;;;;;;14.63;11.12;;;;;;;4.18;54.78;99007.98;2256858;77;21306;-84
2021/03/07 12:11:36;;;;;;;11.60;9.35;;;;;;;4.23;54.99;99014.42;2284213;78;21297;-84
2021/03/07 12:14:38;;;;;;;13.03;10.13;;;;;;;4.23;55.06;99004.53;2235877;77;21185;-84
2021/03/07 12:17:39;;;;;;;13.30;9.08;;;;;;;4.26;55.12;98999.07;2243405;77;21336;-84
2021/03/07 12:20:41;;;;;;;12.98;9.88;;;;;;;4.29;55.02;98991.02;2252849;77;21285;-85
2021/03/07 12:23:43;;;;;;;11.68;9.05;;;;;;;4.34;55.11;98975.89;2278767;78;21282;-84
2021/03/07 12:26:45;;;;;;;22.02;10.38;;;;;;;4.32;54.73;98966.14;2239326;79;21321;-83
2021/03/07 12:29:47;;;;;;;15.90;10.82;;;;;;;4.32;54.85;98968.73;2275166;77;21762;-84
2021/03/07 12:32:49;;;;;;;13.85;9.33;;;;;;;4.35;54.82;98971.53;2272707;77;21167;-83
2021/03/07 12:35:52;;;;;;;18.40;11.73;;;;;;;4.33;54.75;98959.19;2263927;77;21273;-84
2021/03/07 12:38:53;;;;;;;14.23;10.10;;;;;;;4.39;55.00;98962.52;2263622;78;21131;-84
2021/03/07 12:41:55;;;;;;;11.68;9.38;;;;;;;4.43;55.05;98962.61;2256969;78;21361;-85
2021/03/07 12:45:00;;;;;;;13.78;9.75;;;;;;;4.48;55.07;98950.05;2240200;79;21321;-85
2021/03/07 12:48:04;;;;;;;14.40;10.65;;;;;;;4.54;55.06;98942.55;2268726;77;21179;-85
2021/03/07 12:51:08;;;;;;;18.48;10.68;;;;;;;4.61;55.19;98940.24;2277882;77;21091;-84
2021/03/07 12:54:13;;;;;;;14.30;9.93;;;;;;;4.66;54.69;98939.81;2229687;78;21149;-85
2021/03/07 12:57:26;;;;;;;12.70;10.28;;;;;;;4.69;54.70;98936.97;2220122;79;21170;-87
2021/03/07 13:00:30;;;;;;;14.50;11.03;;;;;;;4.68;54.02;98928.86;2238073;79;21278;-85
2021/03/07 13:03:52;;;;;;;16.27;11.88;;;;;;;4.68;54.52;98946.53;2278924;77;21160;-85
2021/03/07 13:06:57;;;;;;;14.78;10.88;;;;;;;4.65;53.95;98942.89;2289217;77;21353;-86
2021/03/07 13:10:00;;;;;;;23.57;13.40;;;;;;;4.62;53.58;98928.91;2251766;78;21274;-83
2021/03/07 13:13:12;;;;;;;15.63;11.95;;;;;;;4.52;53.44;98930.20;2288103;77;24697;-82
2021/03/07 13:16:15;;;;;;;15.53;11.78;;;;;;;4.39;53.36;98923.18;2272256;77;21185;-84
2021/03/07 13:19:39;;;;;;;16.02;11.65;;;;;;;4.31;53.67;98920.44;2226117;79;21309;-84
2021/03/07 13:22:49;;;;;;;31.35;11.70;;;;;;;4.28;54.00;98915.50;2275230;77;21171;-83
2021/03/07 13:26:03;;;;;;;28.80;12.98;;;;;;;4.22;53.95;98931.13;2248833;78;21192;-84
2021/03/07 13:29:06;;;;;;;17.82;11.57;;;;;;;4.17;54.01;98924.70;2238937;79;21313;-84
2021/03/07 13:32:10;;;;;;;13.53;10.15;;;;;;;4.19;54.26;98907.23;2265446;77;21150;-83
2021/03/07 13:35:12;;;;;;;12.45;10.03;;;;;;;4.20;54.27;98914.88;2260811;78;21322;-81
2021/03/07 13:38:13;;;;;;;23.15;13.35;;;;;;;4.24;54.19;98907.66;2261594;77;21121;-83
2021/03/07 13:41:15;;;;;;;16.05;10.03;;;;;;;4.25;54.64;98897.16;2267708;78;21265;-79
2021/03/07 13:44:17;;;;;;;23.27;14.03;;;;;;;4.28;54.80;98908.55;2227997;78;21360;-81
2021/03/07 13:47:19;;;;;;;14.38;10.03;;;;;;;4.33;54.92;98913.81;2244388;79;21192;-80
2021/03/07 13:50:20;;;;;;;13.88;10.28;;;;;;;4.34;55.82;98902.02;2256151;78;21686;-83
2021/03/07 13:53:22;;;;;;;15.65;11.18;;;;;;;4.33;54.64;98901.67;2251893;79;21841;-81
2021/03/07 13:56:24;;;;;;;13.70;11.05;;;;;;;4.37;55.32;98897.84;2238731;78;21361;-81
2021/03/07 13:59:25;;;;;;;15.55;11.20;;;;;;;4.37;54.46;98885.36;2226023;79;21162;-80
2021/03/07 14:02:27;;;;;;;17.23;10.95;;;;;;;4.36;55.87;98885.02;2262945;77;21288;-83
2021/03/07 14:05:29;;;;;;;15.53;11.20;;;;;;;4.39;54.66;98874.37;2252834;78;21184;-81
2021/03/07 14:08:32;;;;;;;14.30;9.98;;;;;;;4.34;53.82;98873.49;2287081;77;21318;-81
2021/03/07 14:11:34;;;;;;;13.50;9.78;;;;;;;4.29;54.05;98870.00;2270671;77;21163;-81